Terminal Aerodrome Forecast
Issued by NWS Omaha/Valley, NE

Home | Current Version | Previous Version | Text Only | Print | Product List | Glossary On
Versions: 1 2 3 4 5 6 7 8 9 10 11 12 13 14 15 16 17 18 19 20 21 22 23 24 25 26 27 28 29 30 31 32 33 34 35 36 37 38 39
000
FTUS43 KOAX 031120
TAFOMA
TAF
KOMA 031120Z 0312/0412 04005KT P6SM BKN040
      TEMPO 0315/0318 -SHRA
     FM040000 08007KT P6SM OVC080 PROB30 0409/0412 6SM -TSRA
      OVC050CB=

USA.gov is the U.S. government's official web portal to all federal, state and local government web resources and services.